Time;durP1;ratioP1;P1;durP2;ratioP2;P2;SDS_P1;SDS_P2;PMS_P1;PMS_P2;Temp;Humidity;BMP_temperature;BMP_pressure;BME280_temperature;BME280_humidity;BME280_pressure;Samples;Min_cycle;Max_cycle;Signal;HPM_P1;HPM_P2
2022/05/05 00:01:45;;;;;;;66.70;14.15;;;;;;;;;;4942253;28;20301;-70
2022/05/05 00:04:11;;;;;;;160.32;34.05;;;;;;;;;;4932622;28;20221;-70
2022/05/05 00:06:37;;;;;;;132.50;26.60;;;;;;;;;;4939904;28;20253;-71
2022/05/05 00:09:04;;;;;;;123.35;26.73;;;;;;;;;;4944644;28;20227;-71
2022/05/05 00:14:25;;;;;;;120.85;24.27;;;;;;;;;;4944796;28;20290;-71
2022/05/05 00:16:51;;;;;;;54.25;11.73;;;;;;;;;;4944465;28;20253;-70
2022/05/05 00:19:17;;;;;;;105.53;22.55;;;;;;;;;;4942189;28;20692;-71
2022/05/05 00:21:43;;;;;;;73.78;15.23;;;;;;;;;;4941010;28;20202;-70
2022/05/05 00:24:09;;;;;;;143.73;30.85;;;;;;;;;;4939757;28;20222;-71
2022/05/05 00:26:35;;;;;;;55.95;12.10;;;;;;;;;;4939641;28;20223;-70
2022/05/05 00:29:02;;;;;;;147.20;31.27;;;;;;;;;;4954126;28;20238;-71
2022/05/05 00:31:28;;;;;;;94.53;19.63;;;;;;;;;;4938097;28;20218;-70
2022/05/05 00:33:54;;;;;;;65.47;13.73;;;;;;;;;;4937744;28;20179;-71
2022/05/05 00:36:20;;;;;;;79.00;16.42;;;;;;;;;;4936802;28;20254;-70
2022/05/05 00:38:46;;;;;;;150.65;32.95;;;;;;;;;;4934642;28;20718;-70
2022/05/05 00:41:12;;;;;;;142.80;29.70;;;;;;;;;;4933882;28;20305;-70
2022/05/05 00:43:38;;;;;;;91.25;18.10;;;;;;;;;;4941519;28;20211;-70
2022/05/05 00:46:04;;;;;;;76.75;16.80;;;;;;;;;;4941455;28;20194;-70
2022/05/05 00:48:30;;;;;;;114.78;23.60;;;;;;;;;;4934753;28;20191;-70
2022/05/05 00:50:57;;;;;;;114.43;24.73;;;;;;;;;;4935047;28;20223;-71
2022/05/05 00:53:23;;;;;;;99.05;20.63;;;;;;;;;;4936710;28;20215;-71
2022/05/05 00:55:59;;;;;;;112.57;22.98;;;;;;;;;;4944913;28;20655;-70
2022/05/05 00:58:26;;;;;;;75.05;15.50;;;;;;;;;;4940869;28;20218;-70
2022/05/05 01:00:52;;;;;;;67.47;14.40;;;;;;;;;;4943805;28;20183;-70
2022/05/05 01:03:18;;;;;;;75.50;15.40;;;;;;;;;;4939302;28;20215;-70
2022/05/05 01:05:45;;;;;;;76.50;16.52;;;;;;;;;;4941715;28;20294;-70
2022/05/05 01:08:11;;;;;;;101.65;19.98;;;;;;;;;;4939248;28;20214;-70
2022/05/05 01:10:37;;;;;;;45.63;10.05;;;;;;;;;;4944715;28;20226;-70
2022/05/05 01:13:03;;;;;;;78.30;18.05;;;;;;;;;;4936958;28;20207;-70
2022/05/05 01:15:30;;;;;;;73.38;15.45;;;;;;;;;;4951860;28;20238;-70
2022/05/05 01:17:56;;;;;;;85.63;18.65;;;;;;;;;;4942526;28;20230;-71
2022/05/05 01:20:22;;;;;;;104.75;21.33;;;;;;;;;;4939381;28;20216;-70
2022/05/05 01:22:50;;;;;;;78.35;16.40;;;;;;;;;;4932630;28;20227;-70
2022/05/05 01:28:13;;;;;;;85.72;19.10;;;;;;;;;;4939311;28;20202;-70
2022/05/05 01:30:40;;;;;;;110.88;23.08;;;;;;;;;;4935546;28;20220;-70
2022/05/05 01:33:13;;;;;;;98.45;20.33;;;;;;;;;;4930705;28;20215;-70
2022/05/05 01:35:39;;;;;;;64.93;13.82;;;;;;;;;;4937238;28;20221;-70
2022/05/05 01:38:07;;;;;;;137.88;29.27;;;;;;;;;;4934190;28;20226;-70
2022/05/05 01:40:33;;;;;;;78.60;16.58;;;;;;;;;;4944860;28;20230;-70
2022/05/05 01:42:59;;;;;;;87.60;19.58;;;;;;;;;;4941339;28;20948;-70
2022/05/05 01:45:25;;;;;;;99.30;20.33;;;;;;;;;;4958240;28;20253;-70
2022/05/05 01:47:51;;;;;;;80.95;17.15;;;;;;;;;;4960567;28;20265;-70
2022/05/05 01:50:17;;;;;;;80.85;17.35;;;;;;;;;;4963291;28;20670;-70
2022/05/05 01:52:43;;;;;;;56.70;12.38;;;;;;;;;;4950702;28;20218;-70
2022/05/05 01:55:09;;;;;;;106.72;23.05;;;;;;;;;;4955788;28;20245;-70
2022/05/05 01:57:35;;;;;;;55.38;11.98;;;;;;;;;;4959216;28;20310;-70
2022/05/05 02:00:02;;;;;;;94.10;20.80;;;;;;;;;;4945053;28;20210;-71
2022/05/05 02:02:28;;;;;;;100.20;20.70;;;;;;;;;;4959803;28;20222;-70
2022/05/05 02:04:54;;;;;;;95.95;19.60;;;;;;;;;;4950514;28;20210;-71
2022/05/05 02:07:20;;;;;;;81.93;16.85;;;;;;;;;;4958488;28;20253;-70
2022/05/05 02:09:46;;;;;;;58.72;12.73;;;;;;;;;;4959773;28;20233;-70
2022/05/05 02:12:12;;;;;;;86.03;18.02;;;;;;;;;;4955864;28;20221;-70
2022/05/05 02:14:38;;;;;;;95.53;19.20;;;;;;;;;;4958467;28;20202;-70
2022/05/05 02:17:05;;;;;;;83.85;19.05;;;;;;;;;;4962237;28;20587;-71
2022/05/05 02:19:31;;;;;;;74.72;15.57;;;;;;;;;;4957859;28;20226;-70
2022/05/05 02:21:57;;;;;;;116.13;24.77;;;;;;;;;;4960345;28;20224;-70
2022/05/05 02:24:23;;;;;;;113.25;22.95;;;;;;;;;;4954694;28;20234;-70
2022/05/05 02:26:49;;;;;;;97.68;20.23;;;;;;;;;;4951886;28;20218;-71
2022/05/05 02:29:15;;;;;;;129.20;25.70;;;;;;;;;;4951163;28;20218;-70
2022/05/05 02:31:41;;;;;;;98.90;20.65;;;;;;;;;;4951282;28;20218;-70
2022/05/05 02:34:08;;;;;;;125.13;27.33;;;;;;;;;;4935433;28;20198;-70
2022/05/05 02:39:22;;;;;;;110.43;22.40;;;;;;;;;;4958253;28;20242;-70
2022/05/05 02:41:48;;;;;;;77.55;16.05;;;;;;;;;;4959636;28;20706;-70
2022/05/05 02:44:14;;;;;;;80.78;17.08;;;;;;;;;;4960570;28;20325;-70
2022/05/05 02:46:41;;;;;;;78.72;16.42;;;;;;;;;;4954127;28;20241;-70
2022/05/05 02:49:07;;;;;;;120.85;25.23;;;;;;;;;;4953375;28;20190;-70
2022/05/05 02:51:32;;;;;;;138.80;27.38;;;;;;;;;;4955037;28;20245;-70
2022/05/05 02:56:43;;;;;;;91.65;18.30;;;;;;;;;;4953075;28;20252;-71
2022/05/05 02:59:09;;;;;;;146.23;29.13;;;;;;;;;;4957742;28;20214;-70
2022/05/05 03:01:35;;;;;;;69.82;14.00;;;;;;;;;;4956131;28;20218;-70
2022/05/05 03:04:01;;;;;;;136.38;28.02;;;;;;;;;;4956552;28;20191;-68
2022/05/05 03:06:27;;;;;;;124.90;24.52;;;;;;;;;;4955249;28;20190;-71
2022/05/05 03:08:53;;;;;;;63.92;13.40;;;;;;;;;;4956891;28;20224;-71
2022/05/05 03:11:18;;;;;;;125.53;24.67;;;;;;;;;;4954232;28;20211;-70
2022/05/05 03:13:44;;;;;;;45.47;10.13;;;;;;;;;;4959331;28;20229;-70
2022/05/05 03:16:10;;;;;;;103.03;21.77;;;;;;;;;;4955779;28;20680;-71
2022/05/05 03:18:40;;;;;;;83.18;16.67;;;;;;;;;;4950664;28;20198;-70
2022/05/05 03:21:06;;;;;;;126.38;26.02;;;;;;;;;;4955595;28;20210;-71
2022/05/05 03:23:32;;;;;;;94.70;18.83;;;;;;;;;;4934926;28;20304;-70
2022/05/05 03:25:58;;;;;;;148.20;29.13;;;;;;;;;;4950197;28;20796;-70
2022/05/05 03:28:24;;;;;;;225.15;43.03;;;;;;;;;;4956186;28;20237;-71
2022/05/05 03:30:50;;;;;;;73.90;14.73;;;;;;;;;;4940496;28;20182;-70
2022/05/05 03:33:16;;;;;;;135.07;25.75;;;;;;;;;;4931839;28;20280;-71
2022/05/05 03:35:42;;;;;;;144.48;27.13;;;;;;;;;;4949805;28;20254;-70
2022/05/05 03:38:08;;;;;;;103.13;20.33;;;;;;;;;;4955099;28;20218;-70
2022/05/05 03:40:34;;;;;;;89.50;17.40;;;;;;;;;;4941630;28;20218;-70
2022/05/05 03:43:00;;;;;;;88.60;17.40;;;;;;;;;;4957105;28;20241;-70
2022/05/05 03:45:26;;;;;;;80.47;15.63;;;;;;;;;;4959179;28;20214;-70
2022/05/05 03:47:52;;;;;;;110.70;20.73;;;;;;;;;;4953091;28;20692;-71
2022/05/05 03:50:18;;;;;;;122.97;22.70;;;;;;;;;;4954360;28;20229;-70
2022/05/05 03:52:44;;;;;;;69.30;13.15;;;;;;;;;;4952549;28;20280;-70
2022/05/05 03:55:10;;;;;;;153.38;28.15;;;;;;;;;;4938270;28;20191;-71
2022/05/05 03:57:36;;;;;;;55.45;10.68;;;;;;;;;;4955638;28;20234;-70
2022/05/05 04:00:03;;;;;;;105.93;20.13;;;;;;;;;;4959877;28;20209;-70
2022/05/05 04:02:29;;;;;;;78.30;14.93;;;;;;;;;;4959204;28;20230;-70
2022/05/05 04:04:55;;;;;;;70.23;13.60;;;;;;;;;;4941814;28;20214;-70
2022/05/05 04:07:22;;;;;;;96.57;17.60;;;;;;;;;;4943741;28;20217;-70
2022/05/05 04:09:48;;;;;;;68.30;12.90;;;;;;;;;;4965991;28;20185;-70
2022/05/05 04:12:14;;;;;;;84.10;15.93;;;;;;;;;;4963115;28;20222;-70
2022/05/05 04:14:40;;;;;;;76.65;14.30;;;;;;;;;;4963785;28;20224;-70
2022/05/05 04:17:06;;;;;;;86.20;15.83;;;;;;;;;;4947001;28;20229;-70
2022/05/05 04:19:32;;;;;;;75.03;14.40;;;;;;;;;;4963127;28;20214;-70
2022/05/05 04:21:58;;;;;;;186.10;34.50;;;;;;;;;;4951442;28;20221;-70
2022/05/05 04:24:23;;;;;;;118.60;21.52;;;;;;;;;;4957978;28;20854;-70
2022/05/05 04:26:49;;;;;;;79.10;14.97;;;;;;;;;;4959245;28;20285;-70
2022/05/05 04:29:15;;;;;;;90.72;17.17;;;;;;;;;;4962334;28;20289;-70
2022/05/05 04:31:43;;;;;;;108.47;20.10;;;;;;;;;;4956344;28;20734;-70
2022/05/05 04:34:09;;;;;;;116.80;21.87;;;;;;;;;;4954176;28;20186;-70
2022/05/05 04:36:36;;;;;;;123.68;22.48;;;;;;;;;;4952249;28;20234;-70
2022/05/05 04:39:03;;;;;;;94.93;18.37;;;;;;;;;;4956522;28;20723;-70
2022/05/05 04:41:29;;;;;;;95.95;17.70;;;;;;;;;;4961052;28;20218;-71
2022/05/05 04:43:55;;;;;;;132.35;24.23;;;;;;;;;;4954367;28;20218;-70
2022/05/05 04:46:21;;;;;;;105.22;19.40;;;;;;;;;;4960778;28;20838;-70
2022/05/05 04:48:48;;;;;;;161.82;29.83;;;;;;;;;;4949933;28;20182;-70
2022/05/05 04:51:14;;;;;;;105.93;19.73;;;;;;;;;;4955805;28;20221;-70
2022/05/05 04:53:40;;;;;;;53.65;10.82;;;;;;;;;;4953319;28;20225;-70
2022/05/05 04:56:06;;;;;;;124.22;24.67;;;;;;;;;;4959796;28;20214;-70
2022/05/05 04:58:33;;;;;;;76.40;13.80;;;;;;;;;;4961178;28;20230;-70
2022/05/05 05:00:59;;;;;;;72.45;14.35;;;;;;;;;;4960662;28;20300;-70
2022/05/05 05:03:39;;;;;;;134.90;23.63;;;;;;;;;;4958404;28;20229;-70
2022/05/05 05:06:06;;;;;;;94.63;18.33;;;;;;;;;;4963826;28;20206;-70
2022/05/05 05:08:33;;;;;;;64.13;12.23;;;;;;;;;;4959549;28;20305;-70
2022/05/05 05:10:59;;;;;;;119.93;23.10;;;;;;;;;;4958247;28;20214;-70
2022/05/05 05:13:25;;;;;;;74.07;13.90;;;;;;;;;;4951579;28;20229;-68
2022/05/05 05:15:50;;;;;;;74.63;14.27;;;;;;;;;;4960021;28;20317;-68
2022/05/05 05:18:16;;;;;;;154.07;27.88;;;;;;;;;;4961221;28;20214;-68
2022/05/05 05:20:42;;;;;;;89.67;17.47;;;;;;;;;;4962283;28;20623;-68
2022/05/05 05:23:09;;;;;;;110.40;20.88;;;;;;;;;;4955868;28;20220;-68
2022/05/05 05:25:35;;;;;;;80.45;15.43;;;;;;;;;;4935157;28;20226;-68
2022/05/05 05:28:01;;;;;;;94.97;20.00;;;;;;;;;;4958742;28;20179;-67
2022/05/05 05:30:27;;;;;;;72.43;14.57;;;;;;;;;;4957213;28;20183;-67
2022/05/05 05:32:53;;;;;;;117.13;24.02;;;;;;;;;;4957956;28;20763;-67
2022/05/05 05:35:19;;;;;;;56.47;11.90;;;;;;;;;;4953786;28;20436;-67
2022/05/05 05:37:45;;;;;;;144.73;28.43;;;;;;;;;;4954187;28;20309;-67
2022/05/05 05:40:11;;;;;;;151.73;29.47;;;;;;;;;;4952209;28;20198;-67
2022/05/05 05:42:37;;;;;;;91.88;18.38;;;;;;;;;;4953500;28;20213;-68
2022/05/05 05:45:03;;;;;;;230.07;45.07;;;;;;;;;;4947535;28;20700;-67
2022/05/05 05:47:30;;;;;;;83.13;16.92;;;;;;;;;;4943920;28;20221;-67
2022/05/05 05:49:56;;;;;;;112.45;23.67;;;;;;;;;;4956559;28;20328;-68
2022/05/05 05:52:22;;;;;;;69.75;13.80;;;;;;;;;;4959681;28;20304;-67
2022/05/05 05:54:48;;;;;;;165.63;32.58;;;;;;;;;;4955882;28;20266;-67
2022/05/05 05:57:14;;;;;;;81.50;16.15;;;;;;;;;;4953592;28;20281;-66
2022/05/05 05:59:40;;;;;;;124.73;24.63;;;;;;;;;;4962579;28;20556;-67
2022/05/05 06:04:50;;;;;;;74.28;15.32;;;;;;;;;;4959433;28;20244;-67
2022/05/05 06:07:17;;;;;;;90.03;18.02;;;;;;;;;;4956968;28;20219;-67
2022/05/05 06:09:43;;;;;;;161.93;31.43;;;;;;;;;;4950212;28;20214;-67
2022/05/05 06:12:09;;;;;;;119.63;24.10;;;;;;;;;;4959463;28;20475;-67
2022/05/05 06:14:35;;;;;;;128.15;25.30;;;;;;;;;;4957622;28;20245;-66
2022/05/05 06:17:01;;;;;;;116.97;25.42;;;;;;;;;;4940245;28;21306;-68
2022/05/05 06:19:27;;;;;;;87.47;17.33;;;;;;;;;;4954675;28;20249;-68
2022/05/05 06:21:53;;;;;;;82.53;17.38;;;;;;;;;;4953231;28;20223;-79
2022/05/05 06:24:19;;;;;;;130.88;26.30;;;;;;;;;;4954609;28;20198;-73
2022/05/05 06:26:45;;;;;;;97.30;19.83;;;;;;;;;;4956565;28;20190;-72
2022/05/05 06:29:12;;;;;;;265.08;52.67;;;;;;;;;;4947633;28;20688;-71
2022/05/05 06:31:37;;;;;;;119.60;23.25;;;;;;;;;;4942130;28;20218;-69
2022/05/05 06:34:03;;;;;;;162.23;32.03;;;;;;;;;;4950156;28;20230;-71
2022/05/05 06:36:30;;;;;;;127.95;26.15;;;;;;;;;;4952670;28;20310;-70
2022/05/05 06:38:56;;;;;;;92.88;19.52;;;;;;;;;;4954487;28;20186;-70
2022/05/05 06:41:22;;;;;;;81.00;16.75;;;;;;;;;;4955280;28;20223;-70
2022/05/05 06:43:48;;;;;;;58.38;12.32;;;;;;;;;;4955592;28;20222;-73
2022/05/05 06:46:14;;;;;;;101.95;20.85;;;;;;;;;;4957239;28;20210;-70
2022/05/05 06:48:41;;;;;;;93.88;19.45;;;;;;;;;;4959147;28;20773;-67
2022/05/05 06:51:07;;;;;;;122.07;25.02;;;;;;;;;;4962318;28;20805;-68
2022/05/05 06:53:32;;;;;;;115.90;24.40;;;;;;;;;;4947356;28;20222;-68
2022/05/05 06:56:00;;;;;;;115.03;24.20;;;;;;;;;;4951616;28;20750;-68
2022/05/05 06:58:26;;;;;;;60.38;12.82;;;;;;;;;;4960381;28;20317;-68
2022/05/05 07:03:37;;;;;;;54.08;11.40;;;;;;;;;;4953467;28;20297;-73
2022/05/05 07:06:03;;;;;;;123.55;26.13;;;;;;;;;;4962769;28;20182;-74
2022/05/05 07:10:52;;;;;;;49.08;10.55;;;;;;;;;;4955900;28;20223;-74
2022/05/05 07:11:15;;;;;;;89.43;18.60;;;;;;;;;;4954204;28;22401;-71
2022/05/05 07:13:41;;;;;;;57.50;12.30;;;;;;;;;;4960677;28;20222;-71
2022/05/05 07:16:07;;;;;;;111.82;23.95;;;;;;;;;;4961562;28;20801;-71
2022/05/05 07:18:33;;;;;;;67.05;14.15;;;;;;;;;;4964243;28;20233;-71
2022/05/05 07:20:59;;;;;;;158.73;33.88;;;;;;;;;;4959675;28;20199;-74
2022/05/05 07:23:25;;;;;;;279.45;56.35;;;;;;;;;;4938966;28;20275;-71
2022/05/05 07:25:51;;;;;;;137.32;28.48;;;;;;;;;;4955095;28;20260;-68
2022/05/05 07:28:17;;;;;;;107.20;21.52;;;;;;;;;;4930407;28;20686;-68
2022/05/05 07:30:44;;;;;;;131.25;27.40;;;;;;;;;;4948857;28;20767;-67
2022/05/05 07:33:10;;;;;;;201.48;43.88;;;;;;;;;;4946733;28;20203;-69
2022/05/05 07:35:39;;;;;;;65.47;13.70;;;;;;;;;;4956795;28;20724;-69
2022/05/05 07:38:08;;;;;;;115.10;29.38;;;;;;;;;;4968844;23;20262;-50
2022/05/05 07:40:34;;;;;;;162.40;36.63;;;;;;;;;;4950588;28;20221;-50
2022/05/05 07:43:00;;;;;;;184.00;41.88;;;;;;;;;;4959316;28;20570;-48
2022/05/05 07:45:26;;;;;;;112.38;27.25;;;;;;;;;;4967306;28;20703;-48
2022/05/05 07:47:52;;;;;;;156.05;34.85;;;;;;;;;;4972202;28;20235;-48
2022/05/05 07:50:18;;;;;;;127.65;31.83;;;;;;;;;;4971104;28;20229;-48
2022/05/05 07:52:44;;;;;;;106.35;26.73;;;;;;;;;;4968054;28;20214;-49
2022/05/05 07:55:10;;;;;;;159.20;37.60;;;;;;;;;;4971169;28;20637;-48
2022/05/05 07:57:47;;;;;;;134.23;31.40;;;;;;;;;;4961563;28;20709;-48
2022/05/05 08:00:13;;;;;;;184.88;41.45;;;;;;;;;;4969039;28;20672;-48
2022/05/05 08:02:39;;;;;;;92.28;22.27;;;;;;;;;;4977202;28;20349;-48
2022/05/05 08:05:08;;;;;;;146.82;32.88;;;;;;;;;;4971814;28;20273;-48
2022/05/05 08:07:34;;;;;;;122.25;29.25;;;;;;;;;;4960361;28;20513;-48
2022/05/05 08:10:00;;;;;;;112.95;27.52;;;;;;;;;;4966732;28;20292;-48
2022/05/05 08:12:27;;;;;;;106.95;26.48;;;;;;;;;;4976947;28;20192;-48
2022/05/05 08:14:53;;;;;;;82.05;20.02;;;;;;;;;;4961308;28;20213;-49
2022/05/05 08:17:19;;;;;;;129.52;29.52;;;;;;;;;;4961809;28;20303;-48
2022/05/05 08:19:45;;;;;;;172.65;38.47;;;;;;;;;;4958371;28;20239;-49
2022/05/05 08:22:11;;;;;;;128.70;31.35;;;;;;;;;;4963709;28;20714;-49
2022/05/05 08:30:06;;;;;;;158.75;37.30;;;;;;;;;;4967425;28;20227;-48
2022/05/05 08:32:32;;;;;;;137.95;33.13;;;;;;;;;;4966117;28;22599;-49
2022/05/05 08:34:58;;;;;;;86.32;22.83;;;;;;;;;;4966830;28;20664;-48
2022/05/05 08:37:24;;;;;;;79.70;20.77;;;;;;;;;;4970999;28;20224;-49
2022/05/05 08:39:50;;;;;;;111.60;27.67;;;;;;;;;;4970610;28;20377;-49
2022/05/05 08:42:16;;;;;;;191.25;47.00;;;;;;;;;;4970817;28;20861;-49
2022/05/05 08:44:42;;;;;;;123.18;29.17;;;;;;;;;;4982304;28;20232;-49
2022/05/05 08:47:10;;;;;;;176.98;40.20;;;;;;;;;;4972109;28;20226;-49
2022/05/05 08:49:37;;;;;;;191.02;41.67;;;;;;;;;;4971584;28;20213;-48
2022/05/05 08:52:04;;;;;;;155.38;37.15;;;;;;;;;;4973486;28;20684;-49
2022/05/05 08:54:32;;;;;;;111.53;27.80;;;;;;;;;;4981525;28;20196;-49
2022/05/05 08:56:58;;;;;;;68.10;18.80;;;;;;;;;;4984155;28;20801;-49
2022/05/05 08:59:25;;;;;;;122.75;29.35;;;;;;;;;;4973371;28;20316;-49
2022/05/05 09:01:52;;;;;;;99.93;24.17;;;;;;;;;;4976156;28;20316;-49
2022/05/05 09:04:19;;;;;;;160.07;36.13;;;;;;;;;;4974632;28;20556;-49
2022/05/05 09:06:46;;;;;;;129.38;32.53;;;;;;;;;;4972694;28;20225;-49
2022/05/05 09:09:27;;;;;;;106.22;26.88;;;;;;;;;;4977550;28;20189;-49
2022/05/05 09:12:06;;;;;;;161.88;37.50;;;;;;;;;;4974291;28;20205;-49
2022/05/05 09:14:45;;;;;;;111.60;26.08;;;;;;;;;;4974988;28;20699;-49
2022/05/05 09:17:13;;;;;;;147.95;35.03;;;;;;;;;;4977642;28;20225;-49
2022/05/05 09:19:40;;;;;;;140.57;33.05;;;;;;;;;;4976678;28;20221;-49
2022/05/05 09:22:07;;;;;;;146.60;35.00;;;;;;;;;;4969994;28;20212;-49
2022/05/05 09:24:36;;;;;;;103.10;25.60;;;;;;;;;;4978926;28;20239;-48
2022/05/05 09:27:19;;;;;;;87.43;22.38;;;;;;;;;;4973445;28;20345;-48
2022/05/05 09:30:14;;;;;;;125.80;31.08;;;;;;;;;;4965093;28;20216;-48
2022/05/05 09:32:42;;;;;;;129.68;32.17;;;;;;;;;;4963156;28;20232;-49
2022/05/05 09:35:15;;;;;;;198.55;44.28;;;;;;;;;;4970408;28;20872;-48
2022/05/05 09:37:45;;;;;;;166.98;37.13;;;;;;;;;;4965307;28;20221;-49
2022/05/05 09:40:13;;;;;;;92.85;23.80;;;;;;;;;;4969234;28;20228;-49
2022/05/05 09:42:40;;;;;;;182.30;43.97;;;;;;;;;;4962796;28;20221;-49
2022/05/05 09:45:19;;;;;;;134.55;31.77;;;;;;;;;;4967479;28;20278;-48
2022/05/05 09:47:54;;;;;;;211.15;44.88;;;;;;;;;;4967690;28;20300;-48
2022/05/05 09:50:21;;;;;;;126.95;31.23;;;;;;;;;;4975904;28;20228;-50
2022/05/05 09:58:23;;;;;;;99.18;25.80;;;;;;;;;;4982761;28;20237;-49
2022/05/05 10:01:00;;;;;;;105.88;27.25;;;;;;;;;;4979025;28;20258;-49
2022/05/05 10:06:25;;;;;;;80.50;21.42;;;;;;;;;;4989616;28;20656;-49
2022/05/05 10:08:57;;;;;;;89.03;24.73;;;;;;;;;;4981674;28;20244;-49
2022/05/05 10:11:23;;;;;;;94.38;26.33;;;;;;;;;;4987206;28;20228;-49
2022/05/05 10:13:50;;;;;;;81.90;24.17;;;;;;;;;;4985632;28;20217;-49
2022/05/05 10:16:17;;;;;;;82.18;22.60;;;;;;;;;;4983087;28;20520;-48
2022/05/05 10:18:43;;;;;;;99.40;27.23;;;;;;;;;;4980356;28;22286;-49
2022/05/05 10:21:10;;;;;;;97.18;26.25;;;;;;;;;;4984832;28;20538;-49
2022/05/05 10:23:53;;;;;;;99.25;27.15;;;;;;;;;;4975386;28;20740;-49
2022/05/05 10:26:22;;;;;;;310.13;72.55;;;;;;;;;;4978650;28;20224;-48
2022/05/05 10:28:49;;;;;;;102.85;27.65;;;;;;;;;;4978866;28;20708;-48
2022/05/05 10:31:30;;;;;;;108.50;28.85;;;;;;;;;;4980537;28;20213;-48
2022/05/05 10:34:02;;;;;;;141.70;36.78;;;;;;;;;;4981238;28;20322;-48
2022/05/05 10:36:29;;;;;;;130.10;35.47;;;;;;;;;;4980206;28;20537;-48
2022/05/05 10:38:55;;;;;;;104.25;30.23;;;;;;;;;;4977997;28;20276;-48
2022/05/05 10:41:34;;;;;;;93.78;27.30;;;;;;;;;;4985671;28;20315;-48
2022/05/05 10:44:15;;;;;;;91.05;27.00;;;;;;;;;;4979212;28;20218;-49
2022/05/05 10:47:03;;;;;;;96.70;28.65;;;;;;;;;;4975141;28;20251;-48
2022/05/05 10:52:10;;;;;;;131.88;35.97;;;;;;;;;;4982340;28;20537;-50
2022/05/05 10:54:37;;;;;;;114.80;33.08;;;;;;;;;;4979843;28;20236;-49
2022/05/05 10:57:21;;;;;;;232.63;58.40;;;;;;;;;;4979228;28;20210;-48
2022/05/05 11:00:13;;;;;;;94.05;27.63;;;;;;;;;;4983589;28;20296;-48
2022/05/05 11:03:02;;;;;;;159.88;39.28;;;;;;;;;;4975059;28;20216;-48
2022/05/05 11:05:28;;;;;;;155.93;38.30;;;;;;;;;;4968460;28;20337;-48
2022/05/05 11:07:55;;;;;;;132.88;34.08;;;;;;;;;;4970842;28;20245;-48
2022/05/05 11:10:44;;;;;;;312.38;78.50;;;;;;;;;;4973725;28;21545;-48
2022/05/05 11:13:29;;;;;;;281.00;69.47;;;;;;;;;;4961607;28;20304;-48
2022/05/05 11:21:35;;;;;;;193.52;51.20;;;;;;;;;;4957846;28;20275;-47
2022/05/05 11:24:02;;;;;;;164.40;40.28;;;;;;;;;;4962397;28;20204;-48
2022/05/05 11:26:29;;;;;;;183.48;48.25;;;;;;;;;;4969765;28;20209;-47
2022/05/05 11:28:58;;;;;;;83.15;26.55;;;;;;;;;;4974808;28;20644;-47
2022/05/05 11:31:25;;;;;;;121.03;35.13;;;;;;;;;;4974746;28;20210;-47
2022/05/05 11:33:53;;;;;;;160.20;43.28;;;;;;;;;;4962058;28;20229;-47
2022/05/05 11:36:20;;;;;;;196.75;53.70;;;;;;;;;;4960372;28;20206;-47
2022/05/05 11:38:46;;;;;;;183.95;52.33;;;;;;;;;;4968760;28;20551;-46
2022/05/05 11:41:17;;;;;;;180.38;50.65;;;;;;;;;;4963886;28;20212;-47
2022/05/05 11:46:28;;;;;;;109.70;30.15;;;;;;;;;;4972669;28;20216;-47
2022/05/05 11:48:55;;;;;;;168.30;46.15;;;;;;;;;;4964074;28;20217;-46
2022/05/05 11:51:22;;;;;;;125.28;37.15;;;;;;;;;;4979939;28;20185;-47
2022/05/05 11:53:48;;;;;;;130.25;37.70;;;;;;;;;;4963881;28;20998;-47
2022/05/05 11:56:16;;;;;;;162.18;47.08;;;;;;;;;;4967697;28;20363;-46
2022/05/05 12:01:42;;;;;;;175.60;51.35;;;;;;;;;;4969949;28;20244;-47
2022/05/05 12:04:10;;;;;;;148.05;45.42;;;;;;;;;;4967003;28;20201;-47
2022/05/05 12:06:37;;;;;;;145.05;43.15;;;;;;;;;;4972494;28;20221;-47
2022/05/05 12:09:03;;;;;;;164.73;49.42;;;;;;;;;;4981070;28;20213;-47
2022/05/05 12:11:29;;;;;;;78.63;25.27;;;;;;;;;;4981471;28;20214;-47
2022/05/05 12:14:05;;;;;;;178.18;49.83;;;;;;;;;;4981432;28;20244;-47
2022/05/05 12:16:32;;;;;;;124.47;40.33;;;;;;;;;;4967204;28;20250;-47
2022/05/05 12:18:59;;;;;;;131.30;43.83;;;;;;;;;;4974989;28;20225;-48
2022/05/05 12:21:26;;;;;;;175.52;50.50;;;;;;;;;;4964659;28;20331;-49
2022/05/05 12:24:04;;;;;;;141.55;40.75;;;;;;;;;;4966800;28;20177;-49
2022/05/05 12:26:32;;;;;;;136.65;40.30;;;;;;;;;;4957823;28;20234;-49
2022/05/05 12:28:58;;;;;;;80.45;26.75;;;;;;;;;;4962430;28;20236;-49
2022/05/05 12:31:24;;;;;;;140.60;41.08;;;;;;;;;;4974183;28;20221;-49
2022/05/05 12:33:50;;;;;;;127.88;37.20;;;;;;;;;;4978002;28;20237;-49
2022/05/05 12:36:17;;;;;;;145.25;44.35;;;;;;;;;;4970806;28;20205;-49
2022/05/05 12:38:43;;;;;;;149.32;42.70;;;;;;;;;;4962693;28;20706;-50
2022/05/05 12:41:09;;;;;;;172.20;48.17;;;;;;;;;;4969033;28;20375;-49
2022/05/05 12:43:35;;;;;;;106.93;31.23;;;;;;;;;;4983060;28;20413;-49
2022/05/05 12:46:02;;;;;;;158.15;44.60;;;;;;;;;;4966017;28;20327;-49
2022/05/05 12:48:28;;;;;;;170.60;48.53;;;;;;;;;;4975604;28;20200;-49
2022/05/05 12:50:54;;;;;;;162.10;44.72;;;;;;;;;;4975552;28;20177;-49
2022/05/05 13:01:44;;;;;;;161.02;49.40;;;;;;;;;;4980327;28;20224;-49
2022/05/05 13:04:13;;;;;;;168.05;52.00;;;;;;;;;;4957949;28;20286;-49
2022/05/05 13:06:39;;;;;;;103.10;32.75;;;;;;;;;;4966662;28;20436;-49
2022/05/05 13:09:08;;;;;;;138.80;46.95;;;;;;;;;;4975722;28;20242;-49
2022/05/05 13:11:34;;;;;;;205.50;64.45;;;;;;;;;;4961242;28;20551;-49
2022/05/05 13:14:02;;;;;;;157.70;49.38;;;;;;;;;;4967164;28;20274;-49
2022/05/05 13:16:28;;;;;;;130.23;43.90;;;;;;;;;;4979217;28;20681;-49
2022/05/05 13:18:55;;;;;;;87.05;31.85;;;;;;;;;;4986552;28;20205;-49
2022/05/05 13:21:22;;;;;;;114.93;37.28;;;;;;;;;;4986521;28;20166;-49
2022/05/05 13:23:48;;;;;;;110.97;39.35;;;;;;;;;;4982668;28;20681;-49
2022/05/05 13:26:14;;;;;;;97.95;35.55;;;;;;;;;;4986979;28;20217;-49
2022/05/05 13:28:39;;;;;;;122.78;42.28;;;;;;;;;;4983701;28;20217;-49
2022/05/05 13:31:05;;;;;;;84.80;39.78;;;;;;;;;;4984270;28;20233;-49
2022/05/05 13:33:31;;;;;;;115.78;56.55;;;;;;;;;;4987754;28;20489;-49
2022/05/05 13:35:57;;;;;;;165.77;91.88;;;;;;;;;;4984534;28;20316;-49
2022/05/05 13:38:23;;;;;;;105.97;65.65;;;;;;;;;;4982950;28;20289;-49
2022/05/05 13:40:49;;;;;;;116.85;70.85;;;;;;;;;;4984226;28;20262;-50
2022/05/05 13:43:15;;;;;;;178.43;84.18;;;;;;;;;;4980761;28;20220;-49
2022/05/05 13:45:41;;;;;;;153.20;94.53;;;;;;;;;;4975957;28;20218;-49
2022/05/05 13:48:07;;;;;;;113.78;62.35;;;;;;;;;;4984760;28;20182;-49
2022/05/05 13:50:33;;;;;;;173.48;83.10;;;;;;;;;;4981779;28;20671;-49
2022/05/05 13:52:59;;;;;;;101.07;91.45;;;;;;;;;;4980051;28;20220;-49
2022/05/05 13:55:28;;;;;;;126.65;108.85;;;;;;;;;;4986393;28;20733;-49
2022/05/05 13:57:58;;;;;;;135.02;122.13;;;;;;;;;;4985041;28;20320;-50
2022/05/05 14:00:24;;;;;;;129.10;114.40;;;;;;;;;;4983887;28;20190;-49
2022/05/05 14:02:50;;;;;;;179.63;120.97;;;;;;;;;;4968737;28;20294;-49
2022/05/05 14:05:16;;;;;;;127.90;113.40;;;;;;;;;;4980864;28;20217;-49
2022/05/05 14:13:12;;;;;;;140.32;125.18;;;;;;;;;;4986430;28;20756;-50
2022/05/05 14:15:38;;;;;;;155.30;139.38;;;;;;;;;;4981259;28;20229;-50
2022/05/05 14:18:05;;;;;;;193.55;172.68;;;;;;;;;;4983556;28;20232;-50
2022/05/05 14:20:31;;;;;;;146.18;131.25;;;;;;;;;;4979574;28;20248;-50
2022/05/05 14:22:57;;;;;;;143.98;129.63;;;;;;;;;;4976246;28;20260;-50
2022/05/05 14:25:24;;;;;;;135.80;108.43;;;;;;;;;;4984366;28;20205;-49
2022/05/05 14:27:50;;;;;;;132.52;109.78;;;;;;;;;;4983076;28;20463;-49
2022/05/05 14:30:16;;;;;;;148.02;108.75;;;;;;;;;;4980043;28;20287;-49
2022/05/05 14:32:42;;;;;;;136.45;109.78;;;;;;;;;;4978897;28;20202;-51
2022/05/05 14:35:08;;;;;;;146.05;101.20;;;;;;;;;;4979501;28;20201;-50
2022/05/05 14:37:35;;;;;;;99.63;60.42;;;;;;;;;;4982600;28;21511;-50
2022/05/05 14:40:01;;;;;;;159.25;81.38;;;;;;;;;;4977020;28;20718;-50
2022/05/05 14:42:27;;;;;;;121.72;66.35;;;;;;;;;;4981943;28;20182;-50
2022/05/05 14:44:53;;;;;;;146.95;72.07;;;;;;;;;;4979918;28;20178;-51
2022/05/05 14:47:19;;;;;;;123.28;67.32;;;;;;;;;;4977034;28;20706;-51
2022/05/05 14:49:48;;;;;;;164.88;67.95;;;;;;;;;;4966246;28;20225;-51
2022/05/05 14:52:15;;;;;;;173.35;64.93;;;;;;;;;;4966811;28;20224;-51
2022/05/05 14:54:41;;;;;;;190.20;69.53;;;;;;;;;;4961703;28;20229;-50
2022/05/05 14:57:07;;;;;;;112.55;80.40;;;;;;;;;;4969506;28;20251;-51
2022/05/05 14:59:33;;;;;;;133.70;87.53;;;;;;;;;;4981416;28;20297;-51
2022/05/05 15:01:59;;;;;;;189.50;102.50;;;;;;;;;;4979506;28;20971;-51
2022/05/05 15:04:25;;;;;;;162.35;94.88;;;;;;;;;;4971873;28;20585;-51
2022/05/05 15:06:51;;;;;;;133.75;95.50;;;;;;;;;;4966358;28;20558;-51
2022/05/05 15:09:20;;;;;;;148.23;120.38;;;;;;;;;;4971265;28;20434;-51